Time;durP1;ratioP1;P1;durP2;ratioP2;P2;SDS_P1;SDS_P2;PMS_P1;PMS_P2;Temp;Humidity;BMP_temperature;BMP_pressure;BME280_temperature;BME280_humidity;BME280_pressure;Samples;Min_cycle;Max_cycle;Signal;HPM_P1;HPM_P2
2021/05/21 00:01:39;;;;;;;10.63;5.78;;;;;12.60;100650.00;;;;5087149;28;20440;-70
2021/05/21 00:04:05;;;;;;;14.07;6.15;;;;;12.50;100641.00;;;;5086851;28;20043;-69
2021/05/21 00:06:33;;;;;;;9.40;6.15;;;;;12.60;100647.00;;;;5086952;28;20028;-71
2021/05/21 00:08:59;;;;;;;7.15;5.18;;;;;12.70;100660.00;;;;5086871;28;20505;-69
2021/05/21 00:11:26;;;;;;;8.55;5.88;;;;;12.60;100649.00;;;;5086446;28;20106;-71
2021/05/21 00:13:53;;;;;;;12.68;5.22;;;;;12.60;100655.00;;;;5087205;28;20393;-70
2021/05/21 00:16:20;;;;;;;9.32;4.75;;;;;12.60;100652.00;;;;5086730;28;20055;-70
2021/05/21 00:18:48;;;;;;;9.05;4.80;;;;;12.50;100630.00;;;;5087106;28;20034;-71
2021/05/21 00:21:15;;;;;;;7.18;4.45;;;;;12.50;100631.00;;;;5086898;28;20036;-72
2021/05/21 00:23:42;;;;;;;9.88;4.53;;;;;12.50;100643.00;;;;5086938;28;20059;-70
2021/05/21 00:26:09;;;;;;;11.85;3.42;;;;;12.40;100649.00;;;;5086110;28;20028;-70
2021/05/21 00:28:36;;;;;;;8.10;3.78;;;;;12.50;100652.00;;;;5085661;28;20046;-72
2021/05/21 00:31:03;;;;;;;9.15;4.95;;;;;12.50;100662.00;;;;5086836;28;20028;-70
2021/05/21 00:33:29;;;;;;;11.07;7.25;;;;;12.50;100646.00;;;;5086294;28;20030;-70
2021/05/21 00:35:56;;;;;;;12.27;6.57;;;;;12.40;100644.00;;;;5086482;28;20028;-70
2021/05/21 00:38:23;;;;;;;8.75;6.43;;;;;12.40;100652.00;;;;5086854;28;20383;-70
2021/05/21 00:40:49;;;;;;;18.70;6.53;;;;;12.50;100661.00;;;;5086631;28;20036;-71
2021/05/21 00:43:17;;;;;;;9.70;5.80;;;;;12.50;100671.00;;;;5085847;28;20605;-71
2021/05/21 00:45:44;;;;;;;11.75;6.47;;;;;12.50;100680.00;;;;5086267;28;20032;-70
2021/05/21 00:48:10;;;;;;;10.88;5.90;;;;;12.50;100669.00;;;;5086082;28;20016;-69
2021/05/21 00:50:37;;;;;;;15.35;6.45;;;;;12.50;100671.00;;;;5085745;28;20074;-70
2021/05/21 00:53:06;;;;;;;9.38;6.28;;;;;12.50;100669.00;;;;5085718;28;20043;-71
2021/05/21 00:55:33;;;;;;;10.85;6.40;;;;;12.50;100676.00;;;;5084602;28;20054;-71
2021/05/21 00:58:02;;;;;;;8.88;5.15;;;;;12.60;100670.00;;;;5085558;28;20024;-70
2021/05/21 01:00:29;;;;;;;10.10;4.55;;;;;12.60;100668.00;;;;5086221;28;20038;-70
2021/05/21 01:02:56;;;;;;;7.57;4.50;;;;;12.50;100660.00;;;;5086313;28;20028;-71
2021/05/21 01:05:23;;;;;;;6.65;3.60;;;;;12.40;100669.00;;;;5086106;28;20052;-71
2021/05/21 01:07:50;;;;;;;5.38;3.50;;;;;12.40;100661.00;;;;5085542;28;20028;-72
2021/05/21 01:10:17;;;;;;;7.47;3.80;;;;;12.40;100659.00;;;;5088791;28;20032;-72
2021/05/21 01:12:44;;;;;;;5.95;3.10;;;;;12.40;100656.00;;;;5094862;28;20034;-72
2021/05/21 01:15:13;;;;;;;6.93;4.60;;;;;12.40;100657.00;;;;5094339;28;20449;-70
2021/05/21 01:17:40;;;;;;;6.03;3.95;;;;;12.40;100660.00;;;;5092264;28;20539;-70
2021/05/21 01:20:08;;;;;;;10.93;5.50;;;;;12.40;100654.00;;;;5084539;28;20020;-69
2021/05/21 01:22:35;;;;;;;8.38;5.03;;;;;12.50;100642.00;;;;5083331;28;20039;-70
2021/05/21 01:25:03;;;;;;;7.60;5.28;;;;;12.50;100649.00;;;;5084413;28;20082;-70
2021/05/21 01:27:30;;;;;;;6.30;4.85;;;;;12.40;100649.00;;;;5083784;28;20623;-70
2021/05/21 01:29:57;;;;;;;8.75;5.00;;;;;12.40;100657.00;;;;5083903;28;20792;-70
2021/05/21 01:32:24;;;;;;;9.43;5.25;;;;;12.40;100666.00;;;;5085153;28;20024;-71
2021/05/21 01:34:50;;;;;;;14.50;5.13;;;;;12.40;100664.00;;;;5085162;28;20032;-69
2021/05/21 01:37:21;;;;;;;8.00;4.57;;;;;12.50;100666.00;;;;5085640;28;20119;-68
2021/05/21 01:39:50;;;;;;;10.93;5.40;;;;;12.50;100678.00;;;;5085321;28;20475;-71
2021/05/21 01:42:17;;;;;;;6.65;4.20;;;;;12.40;100656.00;;;;5085443;28;20040;-70
2021/05/21 01:44:44;;;;;;;7.30;4.03;;;;;12.40;100669.00;;;;5085559;28;20028;-70
2021/05/21 01:47:12;;;;;;;6.40;3.90;;;;;12.40;100668.00;;;;5085720;28;20020;-71
2021/05/21 01:49:39;;;;;;;11.32;3.60;;;;;12.40;100684.00;;;;5086014;28;20108;-69
2021/05/21 01:52:06;;;;;;;9.85;3.78;;;;;12.40;100684.00;;;;5085300;28;20729;-70
2021/05/21 01:54:33;;;;;;;4.95;3.50;;;;;12.40;100692.00;;;;5085072;28;20048;-71
2021/05/21 01:57:02;;;;;;;9.80;4.13;;;;;12.40;100685.00;;;;5085714;28;20094;-69
2021/05/21 01:59:29;;;;;;;6.57;3.83;;;;;12.40;100687.00;;;;5085601;28;20059;-70
2021/05/21 02:01:55;;;;;;;8.07;3.80;;;;;12.40;100695.00;;;;5085469;28;20028;-70
2021/05/21 02:04:36;;;;;;;10.55;4.22;;;;;12.50;100712.00;;;;5084524;28;20123;-70
2021/05/21 02:07:05;;;;;;;9.18;4.35;;;;;12.50;100701.00;;;;5085918;28;20468;-69
2021/05/21 02:09:45;;;;;;;8.25;4.28;;;;;12.50;100712.00;;;;5088242;28;20047;-70
2021/05/21 02:12:12;;;;;;;9.88;4.80;;;;;12.50;100724.00;;;;5089656;28;20371;-70
2021/05/21 02:14:38;;;;;;;12.93;4.60;;;;;12.60;100723.00;;;;5088822;28;20028;-72
2021/05/21 02:17:05;;;;;;;8.70;4.35;;;;;12.60;100736.00;;;;5088886;28;20776;-69
2021/05/21 02:19:32;;;;;;;8.43;4.57;;;;;12.60;100723.00;;;;5089342;28;20032;-71
2021/05/21 02:21:59;;;;;;;7.28;4.35;;;;;12.60;100722.00;;;;5089555;28;20031;-70
2021/05/21 02:24:26;;;;;;;9.38;4.47;;;;;12.50;100729.00;;;;5089048;28;20024;-69
2021/05/21 02:26:52;;;;;;;7.97;3.85;;;;;12.50;100714.00;;;;5088830;28;20518;-69
2021/05/21 02:29:19;;;;;;;11.55;4.10;;;;;12.50;100711.00;;;;5088690;28;20093;-72
2021/05/21 02:31:45;;;;;;;8.40;4.22;;;;;12.50;100703.00;;;;5089527;28;20032;-71
2021/05/21 02:34:12;;;;;;;12.23;3.88;;;;;12.40;100709.00;;;;5089027;28;20103;-68
2021/05/21 02:36:38;;;;;;;6.18;2.75;;;;;12.40;100700.00;;;;5071161;28;20207;-68
2021/05/21 02:39:05;;;;;;;4.20;2.42;;;;;12.40;100703.00;;;;5088852;28;20407;-70
2021/05/21 02:41:32;;;;;;;7.70;2.50;;;;;12.30;100688.00;;;;5088658;28;20032;-71
2021/05/21 02:43:58;;;;;;;4.55;2.00;;;;;12.20;100685.00;;;;5088370;28;20020;-69
2021/05/21 02:46:25;;;;;;;4.20;1.80;;;;;12.20;100675.00;;;;5088866;28;20049;-72
2021/05/21 02:48:51;;;;;;;2.65;1.80;;;;;12.20;100679.00;;;;5088602;28;20482;-72
2021/05/21 02:51:18;;;;;;;4.88;1.98;;;;;12.10;100687.00;;;;5088725;28;20135;-69
2021/05/21 02:53:44;;;;;;;4.00;1.80;;;;;12.00;100682.00;;;;5087908;28;20065;-71
2021/05/21 02:56:11;;;;;;;5.22;1.95;;;;;12.00;100683.00;;;;5088719;28;20024;-71
2021/05/21 02:58:37;;;;;;;5.38;1.98;;;;;11.90;100685.00;;;;5088372;28;20031;-71
2021/05/21 03:01:04;;;;;;;5.88;1.83;;;;;11.90;100678.00;;;;5088368;28;20166;-71
2021/05/21 03:03:30;;;;;;;8.00;1.77;;;;;11.90;100678.00;;;;5088419;28;20031;-72
2021/05/21 03:05:57;;;;;;;10.07;1.80;;;;;11.90;100688.00;;;;5087795;28;20060;-70
2021/05/21 03:08:24;;;;;;;2.72;1.50;;;;;11.90;100683.00;;;;5088225;28;20103;-70
2021/05/21 03:10:50;;;;;;;4.10;1.80;;;;;11.80;100668.00;;;;5087928;28;20582;-68
2021/05/21 03:13:17;;;;;;;3.85;1.67;;;;;11.90;100680.00;;;;5087873;28;20468;-69
2021/05/21 03:15:44;;;;;;;6.70;2.33;;;;;11.90;100669.00;;;;5088130;28;20051;-69
2021/05/21 03:18:18;;;;;;;2.13;1.77;;;;;11.90;100671.00;;;;5087689;28;20085;-71
2021/05/21 03:20:45;;;;;;;4.18;2.22;;;;;11.90;100659.00;;;;5087577;28;20036;-71
2021/05/21 03:23:12;;;;;;;5.72;2.20;;;;;11.80;100659.00;;;;5087947;28;20028;-71
2021/05/21 03:25:41;;;;;;;4.38;2.40;;;;;11.80;100648.00;;;;5087844;28;20085;-69
2021/05/21 03:28:07;;;;;;;7.45;2.22;;;;;11.80;100649.00;;;;5087828;28;20518;-71
2021/05/21 03:30:34;;;;;;;6.75;2.00;;;;;11.90;100643.00;;;;5087337;28;20123;-71
2021/05/21 03:33:01;;;;;;;6.32;1.77;;;;;11.90;100637.00;;;;5087296;28;20081;-71
2021/05/21 03:35:27;;;;;;;2.83;1.65;;;;;11.90;100631.00;;;;5087720;28;20150;-70
2021/05/21 03:37:54;;;;;;;5.95;1.77;;;;;11.90;100645.00;;;;5087551;28;20517;-71
2021/05/21 03:40:21;;;;;;;3.45;1.60;;;;;11.80;100627.00;;;;5087447;28;20031;-68
2021/05/21 03:42:48;;;;;;;4.90;2.22;;;;;11.80;100629.00;;;;5087294;28;20585;-70
2021/05/21 03:45:16;;;;;;;3.92;1.70;;;;;11.80;100618.00;;;;5087893;28;20036;-70
2021/05/21 03:47:46;;;;;;;4.07;1.67;;;;;11.80;100625.00;;;;5087703;28;20031;-70
2021/05/21 03:50:14;;;;;;;3.60;1.92;;;;;11.90;100634.00;;;;5087866;28;20035;-71
2021/05/21 03:52:41;;;;;;;3.25;1.58;;;;;11.90;100628.00;;;;5086575;28;20032;-71
2021/05/21 03:55:10;;;;;;;4.32;2.20;;;;;11.90;100647.00;;;;5087443;28;20685;-71
2021/05/21 03:57:40;;;;;;;4.13;1.90;;;;;11.90;100642.00;;;;5087270;28;20053;-70
2021/05/21 04:00:09;;;;;;;3.90;2.08;;;;;11.90;100642.00;;;;5087932;28;20652;-70
2021/05/21 04:02:36;;;;;;;5.47;1.80;;;;;12.00;100641.00;;;;5086625;28;20024;-70
2021/05/21 04:05:03;;;;;;;4.20;2.25;;;;;12.00;100625.00;;;;5086946;28;20493;-70
2021/05/21 04:07:29;;;;;;;5.43;1.83;;;;;12.10;100603.00;;;;5086904;28;20028;-72
2021/05/21 04:09:56;;;;;;;4.15;2.10;;;;;12.10;100606.00;;;;5087156;28;20098;-72
2021/05/21 04:12:25;;;;;;;4.43;1.75;;;;;12.10;100610.00;;;;5086599;28;20024;-72
2021/05/21 04:14:52;;;;;;;3.70;2.08;;;;;12.00;100616.00;;;;5087271;28;20608;-70
2021/05/21 04:17:19;;;;;;;4.47;1.55;;;;;12.00;100604.00;;;;5086539;28;20024;-71
2021/05/21 04:19:47;;;;;;;5.07;1.92;;;;;12.00;100580.00;;;;5086192;28;20035;-70
2021/05/21 04:22:13;;;;;;;5.00;1.95;;;;;12.10;100573.00;;;;5086851;28;20039;-71
2021/05/21 04:24:41;;;;;;;4.78;1.77;;;;;12.10;100568.00;;;;5087106;28;20035;-69
2021/05/21 04:27:08;;;;;;;3.97;2.45;;;;;12.10;100569.00;;;;5086487;28;20031;-70
2021/05/21 04:29:35;;;;;;;3.45;1.50;;;;;12.10;100572.00;;;;5086693;28;20032;-71
2021/05/21 04:32:02;;;;;;;2.97;1.52;;;;;12.00;100571.00;;;;5085975;28;20028;-68
2021/05/21 04:34:29;;;;;;;4.07;1.77;;;;;12.00;100564.00;;;;5086079;28;20087;-70
2021/05/21 04:36:57;;;;;;;3.20;1.95;;;;;12.00;100571.00;;;;5086500;28;20062;-71
2021/05/21 04:39:25;;;;;;;6.13;1.90;;;;;12.00;100565.00;;;;5086621;28;20032;-71
2021/05/21 04:41:52;;;;;;;3.85;1.58;;;;;12.00;100564.00;;;;5067761;28;20517;-72
2021/05/21 04:44:19;;;;;;;4.97;1.75;;;;;12.00;100557.00;;;;5086864;28;20032;-71
2021/05/21 04:46:46;;;;;;;3.63;1.77;;;;;12.00;100545.00;;;;5086210;28;20024;-70
2021/05/21 04:49:31;;;;;;;7.88;2.03;;;;;12.00;100561.00;;;;5086169;28;20487;-71
2021/05/21 04:52:03;;;;;;;2.95;1.85;;;;;12.00;100564.00;;;;5086203;28;20028;-68
2021/05/21 04:54:30;;;;;;;1.85;1.55;;;;;11.90;100558.00;;;;5086018;28;20056;-71
2021/05/21 04:56:57;;;;;;;5.07;1.95;;;;;11.90;100579.00;;;;5086725;28;20173;-71
2021/05/21 04:59:23;;;;;;;3.67;1.60;;;;;12.00;100562.00;;;;5086047;28;20058;-72
2021/05/21 05:01:50;;;;;;;4.80;2.15;;;;;12.10;100549.00;;;;5086215;28;20027;-71
2021/05/21 05:04:17;;;;;;;3.97;1.98;;;;;12.10;100542.00;;;;5086161;28;20052;-71
2021/05/21 05:06:43;;;;;;;2.53;1.60;;;;;12.10;100551.00;;;;5086329;28;20138;-72
2021/05/21 05:09:10;;;;;;;3.80;2.10;;;;;12.10;100556.00;;;;5086000;28;20024;-69
2021/05/21 05:11:40;;;;;;;1.63;1.52;;;;;12.10;100544.00;;;;5085620;28;20036;-71
2021/05/21 05:14:11;;;;;;;4.85;1.90;;;;;12.20;100543.00;;;;5085362;28;20608;-69
2021/05/21 05:16:38;;;;;;;5.60;2.10;;;;;12.20;100559.00;;;;5086371;28;20470;-71
2021/05/21 05:19:06;;;;;;;8.52;2.35;;;;;12.30;100558.00;;;;5085994;28;20317;-70
2021/05/21 05:21:35;;;;;;;7.90;2.20;;;;;12.30;100566.00;;;;5085927;28;20667;-71
2021/05/21 05:24:02;;;;;;;4.95;1.70;;;;;12.40;100568.00;;;;5086293;28;20077;-70
2021/05/21 05:26:29;;;;;;;7.03;3.13;;;;;12.50;100568.00;;;;5085681;28;20372;-71
2021/05/21 05:28:57;;;;;;;4.82;2.47;;;;;12.60;100570.00;;;;5085612;28;20035;-71
2021/05/21 05:31:24;;;;;;;7.78;2.15;;;;;12.50;100550.00;;;;5086204;28;20028;-69
2021/05/21 05:33:52;;;;;;;4.20;2.20;;;;;12.50;100542.00;;;;5086028;28;20029;-69
2021/05/21 05:36:19;;;;;;;6.90;2.17;;;;;12.40;100517.00;;;;5085226;28;20024;-72
2021/05/21 05:38:46;;;;;;;6.28;2.38;;;;;12.40;100513.00;;;;5085422;28;20395;-72
2021/05/21 05:41:12;;;;;;;5.45;2.80;;;;;12.30;100509.00;;;;5085541;28;20043;-71
2021/05/21 05:43:39;;;;;;;9.15;2.60;;;;;12.30;100506.00;;;;5087002;28;20039;-71
2021/05/21 05:46:05;;;;;;;5.25;2.30;;;;;12.30;100511.00;;;;5089817;28;20398;-71
2021/05/21 05:48:33;;;;;;;3.42;1.90;;;;;12.30;100511.00;;;;5090015;28;20113;-70
2021/05/21 05:50:59;;;;;;;3.30;1.73;;;;;12.40;100505.00;;;;5089348;28;20410;-71
2021/05/21 05:53:26;;;;;;;3.55;1.65;;;;;12.40;100507.00;;;;5089607;28;20027;-72
2021/05/21 05:55:52;;;;;;;4.00;1.52;;;;;12.40;100499.00;;;;5088989;28;20066;-69
2021/05/21 05:58:19;;;;;;;3.22;1.92;;;;;12.40;100506.00;;;;5089298;28;20063;-70
2021/05/21 06:00:45;;;;;;;2.97;1.52;;;;;12.40;100494.00;;;;5089937;28;20479;-71
2021/05/21 06:03:12;;;;;;;3.97;1.65;;;;;12.40;100482.00;;;;5089299;28;20515;-71
2021/05/21 06:05:39;;;;;;;4.93;1.25;;;;;12.40;100499.00;;;;5089293;28;20036;-71
2021/05/21 06:08:07;;;;;;;3.15;1.63;;;;;12.40;100489.00;;;;5088561;28;20031;-71
2021/05/21 06:10:37;;;;;;;3.17;1.55;;;;;12.50;100494.00;;;;5089261;28;20032;-71
2021/05/21 06:13:06;;;;;;;6.55;1.50;;;;;12.50;100482.00;;;;5089346;28;20160;-70
2021/05/21 06:15:33;;;;;;;6.47;1.67;;;;;12.40;100490.00;;;;5089033;28;20165;-69
2021/05/21 06:18:00;;;;;;;2.67;1.45;;;;;12.40;100485.00;;;;5089200;28;20115;-72
2021/05/21 06:20:29;;;;;;;4.28;1.50;;;;;12.50;100482.00;;;;5089053;28;20064;-71
2021/05/21 06:22:56;;;;;;;2.85;1.42;;;;;12.50;100475.00;;;;5088792;28;20065;-71
2021/05/21 06:25:38;;;;;;;1.95;1.35;;;;;12.50;100460.00;;;;5088940;28;20035;-70
2021/05/21 06:28:04;;;;;;;2.05;1.40;;;;;12.40;100473.00;;;;5088850;28;20676;-71
2021/05/21 06:30:31;;;;;;;3.25;1.25;;;;;12.40;100473.00;;;;5088615;28;20043;-73
2021/05/21 06:32:58;;;;;;;2.35;1.50;;;;;12.40;100480.00;;;;5087993;28;20056;-73
2021/05/21 06:35:26;;;;;;;1.80;1.60;;;;;12.50;100488.00;;;;5088768;28;20040;-68
2021/05/21 06:37:53;;;;;;;2.13;1.40;;;;;12.50;100465.00;;;;5089074;28;20497;-71
2021/05/21 06:40:20;;;;;;;2.55;1.30;;;;;12.40;100458.00;;;;5088706;28;20471;-71
2021/05/21 06:42:47;;;;;;;3.42;1.48;;;;;12.40;100454.00;;;;5088242;28;20053;-72
2021/05/21 06:45:14;;;;;;;4.05;1.30;;;;;12.40;100461.00;;;;5088854;28;20020;-71
2021/05/21 06:47:40;;;;;;;4.97;1.23;;;;;12.30;100463.00;;;;5088191;28;20032;-71
2021/05/21 06:50:08;;;;;;;2.75;1.85;;;;;12.40;100468.00;;;;5088694;28;20074;-72
2021/05/21 06:52:34;;;;;;;3.75;1.42;;;;;12.40;100465.00;;;;5088528;28;20725;-72
2021/05/21 06:55:01;;;;;;;2.63;1.58;;;;;12.40;100467.00;;;;5087651;28;20043;-71
2021/05/21 06:57:27;;;;;;;2.83;1.52;;;;;12.40;100463.00;;;;5088303;28;20036;-71
2021/05/21 06:59:54;;;;;;;2.67;1.55;;;;;12.30;100442.00;;;;5088686;28;20458;-72
2021/05/21 07:02:20;;;;;;;2.85;1.38;;;;;12.30;100440.00;;;;5087670;28;20466;-70
2021/05/21 07:04:47;;;;;;;3.97;1.30;;;;;12.30;100424.00;;;;5088463;28;20020;-70
2021/05/21 07:07:13;;;;;;;2.92;1.70;;;;;12.30;100423.00;;;;5088209;28;20552;-70
2021/05/21 07:09:40;;;;;;;2.78;1.60;;;;;12.30;100412.00;;;;5088636;28;20123;-70
2021/05/21 07:12:07;;;;;;;3.38;1.55;;;;;12.30;100415.00;;;;5088036;28;20024;-70
2021/05/21 07:14:34;;;;;;;3.08;1.58;;;;;12.30;100415.00;;;;5087877;28;20680;-72
2021/05/21 07:17:01;;;;;;;3.72;1.42;;;;;12.30;100408.00;;;;5087801;28;20109;-68
2021/05/21 07:19:27;;;;;;;3.65;1.40;;;;;12.30;100402.00;;;;5087981;28;20039;-71
2021/05/21 07:21:54;;;;;;;3.83;1.75;;;;;12.30;100411.00;;;;5088492;28;20193;-70
2021/05/21 07:24:20;;;;;;;3.50;1.70;;;;;12.30;100408.00;;;;5087755;28;20064;-72
2021/05/21 07:26:47;;;;;;;3.20;1.60;;;;;12.30;100403.00;;;;5069638;28;20043;-71
2021/05/21 07:29:13;;;;;;;4.68;2.00;;;;;12.20;100409.00;;;;5087230;28;20054;-72
2021/05/21 07:31:40;;;;;;;3.28;1.70;;;;;12.30;100410.00;;;;5069478;28;20123;-71
2021/05/21 07:34:07;;;;;;;3.15;1.88;;;;;12.30;100393.00;;;;5069959;28;20112;-71
2021/05/21 07:36:35;;;;;;;4.18;2.17;;;;;12.20;100392.00;;;;5088399;28;20395;-70
2021/05/21 07:39:05;;;;;;;3.10;1.95;;;;;12.20;100386.00;;;;5087751;28;20028;-70
2021/05/21 07:41:31;;;;;;;4.75;1.90;;;;;12.20;100387.00;;;;5087213;28;20032;-70
2021/05/21 07:43:58;;;;;;;2.17;1.63;;;;;12.10;100393.00;;;;5087498;28;20494;-72
2021/05/21 07:46:26;;;;;;;3.70;2.03;;;;;12.10;100405.00;;;;5087574;28;20368;-72
2021/05/21 07:48:53;;;;;;;3.70;2.05;;;;;12.10;100408.00;;;;5087194;28;20394;-71
2021/05/21 07:51:20;;;;;;;2.17;1.50;;;;;12.10;100404.00;;;;5087103;28;20036;-72
2021/05/21 07:53:48;;;;;;;3.30;1.98;;;;;12.10;100409.00;;;;5086937;28;20032;-69
2021/05/21 07:56:15;;;;;;;2.50;1.60;;;;;12.10;100394.00;;;;5086785;28;20043;-70
2021/05/21 07:58:41;;;;;;;3.20;1.90;;;;;12.00;100405.00;;;;5087051;28;20028;-69
2021/05/21 08:01:08;;;;;;;7.30;1.77;;;;;12.00;100406.00;;;;5087480;28;20028;-70
2021/05/21 08:03:35;;;;;;;8.02;1.70;;;;;12.00;100402.00;;;;5087225;28;20724;-70
2021/05/21 08:06:02;;;;;;;2.00;1.30;;;;;12.00;100406.00;;;;5086682;28;20023;-71
2021/05/21 08:08:31;;;;;;;4.43;1.80;;;;;12.00;100392.00;;;;5086777;28;20055;-71
2021/05/21 08:11:00;;;;;;;3.47;2.00;;;;;11.90;100396.00;;;;5086464;28;20031;-71
2021/05/21 08:13:27;;;;;;;3.03;1.70;;;;;11.80;100386.00;;;;5086736;28;20024;-70
2021/05/21 08:15:54;;;;;;;2.38;1.60;;;;;11.70;100386.00;;;;5086437;28;20479;-68
2021/05/21 08:18:20;;;;;;;1.58;1.40;;;;;11.60;100377.00;;;;5086886;28;20066;-72
2021/05/21 08:20:49;;;;;;;3.92;1.55;;;;;11.50;100386.00;;;;5086404;28;20032;-70
2021/05/21 08:23:16;;;;;;;6.18;1.75;;;;;11.40;100384.00;;;;5086943;28;20543;-71
2021/05/21 08:25:44;;;;;;;3.75;1.65;;;;;11.30;100394.00;;;;5086086;28;20402;-70
2021/05/21 08:28:11;;;;;;;4.50;1.60;;;;;11.20;100385.00;;;;5086571;28;20032;-71
2021/05/21 08:30:38;;;;;;;3.17;1.83;;;;;11.00;100365.00;;;;5087169;28;20513;-70
2021/05/21 08:33:06;;;;;;;4.22;1.65;;;;;10.90;100373.00;;;;5086208;28;20024;-70
2021/05/21 08:35:33;;;;;;;8.70;1.90;;;;;10.90;100371.00;;;;5086440;28;20117;-72
2021/05/21 08:38:02;;;;;;;2.88;1.80;;;;;10.80;100356.00;;;;5085985;28;20036;-70
2021/05/21 08:40:35;;;;;;;4.38;1.83;;;;;10.70;100358.00;;;;5086445;28;20035;-70
2021/05/21 08:43:06;;;;;;;6.05;2.08;;;;;10.70;100363.00;;;;5086512;28;20055;-72
2021/05/21 08:45:33;;;;;;;8.10;2.40;;;;;10.60;100372.00;;;;5086216;28;20028;-71
2021/05/21 08:48:01;;;;;;;5.32;1.80;;;;;10.60;100361.00;;;;5086567;28;20035;-69
2021/05/21 08:50:29;;;;;;;4.95;1.48;;;;;10.60;100373.00;;;;5086631;28;20030;-72
2021/05/21 08:52:56;;;;;;;3.83;2.00;;;;;10.40;100363.00;;;;5086643;28;20410;-70
2021/05/21 08:55:23;;;;;;;4.63;1.75;;;;;10.30;100370.00;;;;5086149;28;20079;-71
2021/05/21 08:57:49;;;;;;;4.85;1.77;;;;;10.30;100363.00;;;;5086301;28;20531;-70
2021/05/21 09:00:16;;;;;;;5.70;1.67;;;;;10.20;100379.00;;;;5086254;28;20067;-72
2021/05/21 09:02:46;;;;;;;4.00;1.65;;;;;10.20;100383.00;;;;5086075;28;20430;-72
2021/05/21 09:05:12;;;;;;;3.53;1.70;;;;;10.20;100376.00;;;;5085566;28;20036;-68
2021/05/21 09:07:41;;;;;;;4.55;1.95;;;;;10.20;100367.00;;;;5086499;28;20485;-69
2021/05/21 09:10:12;;;;;;;3.90;1.92;;;;;10.20;100379.00;;;;5085842;28;20110;-71
2021/05/21 09:12:40;;;;;;;6.25;1.98;;;;;10.20;100383.00;;;;5085713;28;20016;-72
2021/05/21 09:15:14;;;;;;;3.78;1.85;;;;;10.20;100396.00;;;;5085941;28;20093;-72
2021/05/21 09:18:00;;;;;;;2.45;2.05;;;;;10.20;100399.00;;;;5085267;28;20074;-72
2021/05/21 09:20:36;;;;;;;2.83;1.77;;;;;10.10;100400.00;;;;5085969;28;20032;-70
2021/05/21 09:23:10;;;;;;;8.25;1.88;;;;;10.10;100400.00;;;;5085775;28;20066;-71
2021/05/21 09:25:36;;;;;;;3.67;2.08;;;;;10.10;100392.00;;;;5085731;28;20038;-71
2021/05/21 09:28:03;;;;;;;3.50;2.10;;;;;10.10;100377.00;;;;5067934;28;20040;-72
2021/05/21 09:30:29;;;;;;;2.95;1.95;;;;;10.00;100390.00;;;;5085610;28;20070;-72
2021/05/21 09:33:04;;;;;;;7.20;2.30;;;;;10.00;100378.00;;;;5085869;28;20031;-71
2021/05/21 09:35:31;;;;;;;9.50;2.20;;;;;10.00;100395.00;;;;5085536;28;20032;-69
2021/05/21 09:37:58;;;;;;;4.03;2.03;;;;;10.00;100377.00;;;;5085708;28;20078;-68
2021/05/21 09:40:29;;;;;;;5.57;2.17;;;;;10.00;100391.00;;;;5086288;28;20031;-70
2021/05/21 09:43:06;;;;;;;8.52;2.15;;;;;9.90;100371.00;;;;5086005;28;20390;-70
2021/05/21 09:45:37;;;;;;;9.52;2.70;;;;;9.90;100369.00;;;;5085821;28;20029;-69
2021/05/21 09:48:08;;;;;;;11.65;2.75;;;;;9.90;100364.00;;;;5067480;28;20141;-71
2021/05/21 09:50:42;;;;;;;5.00;2.55;;;;;9.90;100379.00;;;;5085454;28;20106;-72
2021/05/21 09:53:14;;;;;;;4.97;2.90;;;;;9.90;100385.00;;;;5085671;28;20402;-71
2021/05/21 09:55:44;;;;;;;5.68;2.72;;;;;10.00;100382.00;;;;5085286;28;20055;-71
2021/05/21 09:58:40;;;;;;;8.13;2.80;;;;;10.00;100377.00;;;;5085271;28;20394;-69
2021/05/21 10:01:09;;;;;;;3.83;2.33;;;;;10.00;100384.00;;;;5085516;28;20036;-72
2021/05/21 10:03:38;;;;;;;4.80;3.10;;;;;10.00;100371.00;;;;5085331;28;20120;-72
2021/05/21 10:06:05;;;;;;;10.90;2.95;;;;;10.00;100377.00;;;;5085453;28;20038;-71
2021/05/21 10:08:32;;;;;;;4.82;3.17;;;;;10.00;100353.00;;;;5085281;28;20064;-70
2021/05/21 10:10:59;;;;;;;8.07;5.10;;;;;10.00;100367.00;;;;5085097;28;20024;-72
2021/05/21 10:13:27;;;;;;;6.22;3.88;;;;;10.10;100377.00;;;;5085273;28;20498;-70
2021/05/21 10:15:55;;;;;;;7.55;3.53;;;;;10.10;100388.00;;;;5085016;28;20617;-71
2021/05/21 10:18:23;;;;;;;7.53;3.30;;;;;10.10;100371.00;;;;5085048;28;20504;-71
2021/05/21 10:20:49;;;;;;;9.07;2.80;;;;;10.20;100385.00;;;;5085088;28;20028;-72
2021/05/21 10:23:22;;;;;;;3.50;2.13;;;;;10.20;100385.00;;;;5085649;28;20506;-68
2021/05/21 10:25:53;;;;;;;3.47;2.35;;;;;10.30;100387.00;;;;5086425;28;20020;-70
2021/05/21 10:28:25;;;;;;;2.92;2.50;;;;;10.40;100405.00;;;;5084576;28;20024;-72
2021/05/21 10:30:51;;;;;;;3.67;2.38;;;;;10.50;100399.00;;;;5086332;28;20032;-69
2021/05/21 10:33:26;;;;;;;4.30;2.25;;;;;10.50;100403.00;;;;5088732;28;20167;-70
2021/05/21 10:36:15;;;;;;;11.98;2.80;;;;;10.60;100403.00;;;;5088546;28;20028;-70
2021/05/21 10:39:22;;;;;;;11.00;3.72;;;;;10.90;100396.00;;;;5088700;28;20130;-70
2021/05/21 10:41:51;;;;;;;6.30;2.88;;;;;11.00;100398.00;;;;5088017;28;20741;-69
2021/05/21 10:44:20;;;;;;;3.13;2.28;;;;;11.10;100392.00;;;;5088498;28;20024;-70
2021/05/21 10:46:51;;;;;;;7.63;1.90;;;;;11.20;100399.00;;;;5088606;28;20077;-69
2021/05/21 10:49:27;;;;;;;4.95;2.40;;;;;11.40;100387.00;;;;5088705;28;20032;-68
2021/05/21 10:51:55;;;;;;;3.75;1.80;;;;;12.40;100366.00;;;;5088577;28;20059;-71
2021/05/21 10:54:30;;;;;;;1.88;1.55;;;;;12.60;100386.00;;;;5088500;28;20048;-70
2021/05/21 10:57:09;;;;;;;4.75;1.98;;;;;12.90;100370.00;;;;5088658;28;20494;-72
2021/05/21 10:59:57;;;;;;;5.40;2.10;;;;;13.10;100386.00;;;;5088237;28;20505;-71
2021/05/21 11:02:49;;;;;;;6.50;2.58;;;;;13.10;100382.00;;;;5088590;28;20131;-72
2021/05/21 11:05:35;;;;;;;5.43;2.67;;;;;13.40;100385.00;;;;5087881;28;20047;-71
2021/05/21 11:08:03;;;;;;;8.15;3.47;;;;;13.30;100389.00;;;;5069681;28;20070;-71
2021/05/21 11:10:33;;;;;;;9.85;3.83;;;;;13.50;100379.00;;;;5088505;28;20080;-70
2021/05/21 11:13:13;;;;;;;6.18;3.78;;;;;14.10;100368.00;;;;5088602;28;20024;-72
2021/05/21 11:15:43;;;;;;;3.97;2.28;;;;;14.40;100376.00;;;;5088138;28;20032;-71
2021/05/21 11:18:17;;;;;;;6.20;2.60;;;;;14.30;100389.00;;;;5087866;28;20040;-72
2021/05/21 11:21:17;;;;;;;2.97;2.03;;;;;14.50;100380.00;;;;5087739;28;20039;-73
2021/05/21 11:23:48;;;;;;;2.67;1.83;;;;;14.50;100396.00;;;;5070695;28;20040;-71
2021/05/21 11:26:15;;;;;;;6.07;2.00;;;;;14.50;100396.00;;;;5087243;28;20038;-72
2021/05/21 11:28:46;;;;;;;5.78;1.95;;;;;14.50;100397.00;;;;5087816;28;20072;-72
2021/05/21 11:31:15;;;;;;;6.22;2.60;;;;;14.20;100411.00;;;;5087348;28;20039;-71
2021/05/21 11:33:47;;;;;;;2.88;2.13;;;;;14.00;100417.00;;;;5088002;28;20031;-72
2021/05/21 11:36:14;;;;;;;4.82;2.33;;;;;13.80;100416.00;;;;5088022;28;20521;-71
2021/05/21 11:38:42;;;;;;;4.95;2.30;;;;;13.90;100429.00;;;;5088073;28;20035;-71
2021/05/21 11:41:11;;;;;;;8.30;2.63;;;;;13.80;100428.00;;;;5086526;28;20031;-72
2021/05/21 11:43:42;;;;;;;4.50;2.30;;;;;13.80;100429.00;;;;5087367;28;20140;-72
2021/05/21 11:46:17;;;;;;;3.60;2.40;;;;;13.90;100421.00;;;;5087045;28;20032;-71
2021/05/21 11:48:46;;;;;;;5.10;2.55;;;;;13.90;100427.00;;;;5087345;28;20032;-72
2021/05/21 11:51:16;;;;;;;5.28;3.40;;;;;14.00;100413.00;;;;5087519;28;20055;-70
2021/05/21 11:54:04;;;;;;;5.60;3.03;;;;;14.00;100411.00;;;;5086779;28;20726;-72
2021/05/21 11:56:41;;;;;;;8.50;3.10;;;;;14.10;100429.00;;;;5087553;28;20050;-72
2021/05/21 11:59:12;;;;;;;7.60;3.20;;;;;14.20;100422.00;;;;5087126;28;20035;-71
2021/05/21 12:01:45;;;;;;;6.10;2.78;;;;;14.30;100435.00;;;;5087077;28;20028;-71
2021/05/21 12:04:11;;;;;;;7.57;3.40;;;;;14.40;100425.00;;;;5086702;28;20046;-72
2021/05/21 12:06:40;;;;;;;14.18;5.80;;;;;14.50;100415.00;;;;5086958;28;20035;-71
2021/05/21 12:09:11;;;;;;;7.90;3.88;;;;;14.50;100419.00;;;;5087067;28;20030;-71
2021/05/21 12:11:40;;;;;;;7.65;3.45;;;;;14.40;100414.00;;;;5086432;28;20028;-72
2021/05/21 12:14:12;;;;;;;4.35;3.13;;;;;14.40;100401.00;;;;5086914;28;20020;-71
2021/05/21 12:16:41;;;;;;;27.45;4.95;;;;;14.60;100411.00;;;;5086904;28;20039;-71